createdAt,value
2018-09-28T00:01:02.667Z,12.80
2018-09-28T00:03:05.834Z,12.70
2018-09-28T00:05:08.992Z,12.70
2018-09-28T00:07:12.124Z,12.80
2018-09-28T00:09:15.240Z,12.80
2018-09-28T00:11:18.323Z,12.70
2018-09-28T00:13:23.163Z,12.70
2018-09-28T00:15:26.321Z,12.60
2018-09-28T00:17:29.422Z,12.50
2018-09-28T00:19:32.489Z,12.50
2018-09-28T00:21:35.919Z,12.50
2018-09-28T00:23:38.964Z,12.50
2018-09-28T00:25:42.042Z,12.50
2018-09-28T00:27:45.186Z,12.50
2018-09-28T00:29:48.244Z,12.60
2018-09-28T00:31:53.129Z,12.60
2018-09-28T00:33:56.188Z,12.50
2018-09-28T00:35:59.385Z,12.50
2018-09-28T00:38:02.548Z,12.40
2018-09-28T00:40:05.683Z,12.30
2018-09-28T00:42:08.843Z,12.30
2018-09-28T00:44:11.912Z,12.20
2018-09-28T00:46:14.974Z,12.10
2018-09-28T00:48:18.106Z,12.10
2018-09-28T00:50:22.625Z,12.10
2018-09-28T00:52:25.711Z,12.00
2018-09-28T00:54:29.183Z,12.00
2018-09-28T00:56:32.269Z,12.00
2018-09-28T00:58:35.349Z,11.90
2018-09-28T01:00:38.711Z,11.90
2018-09-28T01:02:41.784Z,11.80
2018-09-28T01:04:44.819Z,11.80
2018-09-28T01:06:47.921Z,11.70
2018-09-28T01:08:52.048Z,11.70
2018-09-28T01:10:55.108Z,11.70
2018-09-28T01:12:58.351Z,11.60
2018-09-28T01:15:01.419Z,11.60
2018-09-28T01:17:04.500Z,11.50
2018-09-28T01:19:08.000Z,11.50
2018-09-28T01:21:11.081Z,11.50
2018-09-28T01:23:14.112Z,11.50
2018-09-28T01:25:17.222Z,11.40
2018-09-28T01:27:20.307Z,11.40
2018-09-28T01:29:24.565Z,11.40
2018-09-28T01:31:27.666Z,11.40
2018-09-28T01:33:30.695Z,11.40
2018-09-28T01:35:33.837Z,11.40
2018-09-28T01:37:36.961Z,11.30
2018-09-28T01:39:40.050Z,11.20
2018-09-28T01:41:43.119Z,11.20
2018-09-28T01:43:46.286Z,11.10
2018-09-28T01:45:49.335Z,11.10
2018-09-28T01:47:54.085Z,11.00
2018-09-28T01:49:57.187Z,11.00
2018-09-28T01:52:00.231Z,11.00
2018-09-28T01:54:03.389Z,10.90
2018-09-28T01:56:06.625Z,10.90
2018-09-28T01:58:09.677Z,10.80
2018-09-28T02:00:12.848Z,10.80
2018-09-28T02:02:15.888Z,10.70
2018-09-28T02:04:18.980Z,10.70
2018-09-28T02:06:24.304Z,10.60
2018-09-28T02:08:27.336Z,10.60
2018-09-28T02:10:30.443Z,10.50
2018-09-28T02:12:33.623Z,10.50
2018-09-28T02:14:36.643Z,10.50
2018-09-28T02:16:39.715Z,10.40
2018-09-28T02:18:42.803Z,10.40
2018-09-28T02:20:45.911Z,10.40
2018-09-28T02:22:48.979Z,10.40
2018-09-28T02:24:53.983Z,10.30
2018-09-28T02:26:57.068Z,10.30
2018-09-28T02:29:00.231Z,10.30
2018-09-28T02:31:03.324Z,10.20
2018-09-28T02:33:06.382Z,10.20
2018-09-28T02:35:09.418Z,10.20
2018-09-28T02:37:12.406Z,10.20
2018-09-28T02:39:15.397Z,10.10
2018-09-28T02:41:18.641Z,10.00
2018-09-28T02:43:23.343Z,10.10
2018-09-28T02:45:26.337Z,10.10
2018-09-28T02:47:29.371Z,10.00
2018-09-28T02:49:32.379Z,10.00
2018-09-28T02:51:35.691Z,10.00
2018-09-28T02:53:38.641Z,10.00
2018-09-28T02:55:41.615Z,10.00
2018-09-28T02:57:44.610Z,10.00
2018-09-28T02:59:47.560Z,9.90
2018-09-28T03:01:51.777Z,9.90
2018-09-28T03:03:54.850Z,9.90
2018-09-28T03:05:57.850Z,9.90
2018-09-28T03:08:00.839Z,9.90
2018-09-28T03:10:04.018Z,9.90
2018-09-28T03:12:07.068Z,9.90
2018-09-28T03:14:10.105Z,9.80
2018-09-28T03:16:13.106Z,9.80
2018-09-28T03:18:17.074Z,9.80
2018-09-28T03:20:20.382Z,9.80
2018-09-28T03:22:23.430Z,9.80
2018-09-28T03:24:26.878Z,9.70
2018-09-28T03:26:29.888Z,9.70
2018-09-28T03:28:32.851Z,9.70
2018-09-28T03:30:35.882Z,9.70
2018-09-28T03:32:38.987Z,9.70
2018-09-28T03:34:42.001Z,9.70
2018-09-28T03:36:45.041Z,9.70
2018-09-28T03:38:48.078Z,9.70
2018-09-28T03:40:52.521Z,9.80
2018-09-28T03:42:55.943Z,9.70
2018-09-28T03:44:58.977Z,9.70
2018-09-28T03:47:02.241Z,9.70
2018-09-28T03:49:05.539Z,9.60
2018-09-28T03:51:08.525Z,9.60
2018-09-28T03:53:11.559Z,9.60
2018-09-28T03:55:14.622Z,9.50
2018-09-28T03:57:17.633Z,9.50
2018-09-28T03:59:22.281Z,9.50
2018-09-28T04:01:25.439Z,9.50
2018-09-28T04:03:28.402Z,9.50
2018-09-28T04:05:31.411Z,9.50
2018-09-28T04:07:35.239Z,9.50
2018-09-28T04:09:38.202Z,9.50
2018-09-28T04:11:41.191Z,9.50
2018-09-28T04:13:44.265Z,9.50
2018-09-28T04:15:47.214Z,9.50
2018-09-28T04:17:50.239Z,9.40
2018-09-28T04:19:54.675Z,9.40
2018-09-28T04:21:59.925Z,9.40
2018-09-28T04:24:02.885Z,9.40
2018-09-28T04:26:05.920Z,9.40
2018-09-28T04:28:08.914Z,9.30
2018-09-28T04:30:11.886Z,9.30
2018-09-28T04:32:14.939Z,9.30
2018-09-28T04:34:18.259Z,9.30
2018-09-28T04:36:22.723Z,9.30
2018-09-28T04:38:25.768Z,9.20
2018-09-28T04:40:29.169Z,9.30
2018-09-28T04:42:32.139Z,9.20
2018-09-28T04:44:35.182Z,9.20
2018-09-28T04:46:38.303Z,9.20
2018-09-28T04:48:41.380Z,9.20
2018-09-28T04:50:44.379Z,9.20
2018-09-28T04:52:47.387Z,9.10
2018-09-28T04:54:50.374Z,9.10
2018-09-28T04:56:53.369Z,9.10
2018-09-28T04:58:56.434Z,9.10
2018-09-28T05:00:59.442Z,9.10
2018-09-28T05:03:02.464Z,9.10
2018-09-28T05:05:05.767Z,9.00
2018-09-28T05:07:08.871Z,9.00
2018-09-28T05:09:13.281Z,9.00
2018-09-28T05:11:16.302Z,9.00
2018-09-28T05:13:19.308Z,9.00
2018-09-28T05:15:23.983Z,9.00
2018-09-28T05:17:27.005Z,9.00
2018-09-28T05:19:30.116Z,9.00
2018-09-28T05:21:33.151Z,9.00
2018-09-28T05:23:36.125Z,9.00
2018-09-28T05:25:39.175Z,9.00
2018-09-28T05:27:42.151Z,9.00
2018-09-28T05:29:45.157Z,9.00
2018-09-28T05:31:48.210Z,9.10
2018-09-28T05:33:52.890Z,9.20
2018-09-28T05:35:55.907Z,9.20
2018-09-28T05:37:58.894Z,9.20
2018-09-28T05:40:01.965Z,9.30
2018-09-28T05:42:05.050Z,9.30
2018-09-28T05:44:08.058Z,9.30
2018-09-28T05:46:11.132Z,9.40
2018-09-28T05:48:14.131Z,9.50
2018-09-28T05:50:17.091Z,9.50
2018-09-28T05:52:20.097Z,9.50
2018-09-28T05:54:24.290Z,9.60
2018-09-28T05:56:27.327Z,9.70
2018-09-28T05:58:36.205Z,9.80
2018-09-28T06:00:45.145Z,10.00
2018-09-28T06:02:53.942Z,10.10
2018-09-28T06:05:02.739Z,10.20
2018-09-28T06:07:06.005Z,10.40
2018-09-28T06:09:10.378Z,10.50
2018-09-28T06:11:13.459Z,10.50
2018-09-28T06:13:17.738Z,10.60
2018-09-28T06:15:22.155Z,10.70
2018-09-28T06:17:25.175Z,10.80
2018-09-28T06:19:28.203Z,10.80
2018-09-28T06:21:31.228Z,10.90
2018-09-28T06:23:34.363Z,10.90
2018-09-28T06:25:37.365Z,11.00
2018-09-28T06:27:40.510Z,11.00
2018-09-28T06:29:43.577Z,11.10
2018-09-28T06:31:46.566Z,11.10
2018-09-28T06:33:49.548Z,11.20
2018-09-28T06:35:54.091Z,11.30
2018-09-28T06:37:57.150Z,11.30
2018-09-28T06:40:00.583Z,11.30
2018-09-28T06:42:03.650Z,11.40
2018-09-28T06:44:06.635Z,11.40
2018-09-28T06:46:10.098Z,11.40
2018-09-28T06:48:14.434Z,11.50
2018-09-28T06:50:17.522Z,11.50
2018-09-28T06:52:22.567Z,11.50
2018-09-28T06:54:25.581Z,11.50
2018-09-28T06:56:28.586Z,11.50
2018-09-28T06:58:31.685Z,11.60
2018-09-28T07:00:34.735Z,11.60
2018-09-28T07:02:38.066Z,11.70
2018-09-28T07:04:41.521Z,11.80
2018-09-28T07:06:44.595Z,11.80
2018-09-28T07:08:47.603Z,11.90
2018-09-28T07:10:52.402Z,11.90
2018-09-28T07:12:55.433Z,11.90
2018-09-28T07:14:58.490Z,11.90
2018-09-28T07:17:01.548Z,12.00
2018-09-28T07:19:04.956Z,12.10
2018-09-28T07:21:08.014Z,12.10
2018-09-28T07:23:11.467Z,12.10
2018-09-28T07:25:14.559Z,12.20
2018-09-28T07:27:17.575Z,12.20
2018-09-28T07:29:22.751Z,12.20
2018-09-28T07:31:25.849Z,12.30
2018-09-28T07:33:28.881Z,12.30
2018-09-28T07:35:31.923Z,12.30
2018-09-28T07:37:35.005Z,12.30
2018-09-28T07:39:38.053Z,12.30
2018-09-28T07:41:41.220Z,12.40
2018-09-28T07:43:44.228Z,12.40
2018-09-28T07:45:47.255Z,12.50
2018-09-28T07:47:50.505Z,12.60
2018-09-28T07:49:54.910Z,12.70
2018-09-28T07:51:57.885Z,12.80
2018-09-28T07:54:00.945Z,12.90
2018-09-28T07:56:03.920Z,13.00
2018-09-28T07:58:06.957Z,13.10
2018-09-28T08:00:10.301Z,13.20
2018-09-28T08:02:13.277Z,13.20
2018-09-28T08:04:16.260Z,13.30
2018-09-28T08:06:19.271Z,13.30
2018-09-28T08:08:23.409Z,13.40
2018-09-28T08:10:26.422Z,13.30
2018-09-28T08:12:29.482Z,13.30
2018-09-28T08:14:32.447Z,13.40
2018-09-28T08:16:35.516Z,13.50
2018-09-28T08:18:38.698Z,13.80
2018-09-28T08:20:41.663Z,14.00
2018-09-28T08:22:44.658Z,14.20
2018-09-28T08:24:47.769Z,14.50
2018-09-28T08:26:52.411Z,14.80
2018-09-28T08:28:55.369Z,14.90
2018-09-28T08:30:58.385Z,15.00
2018-09-28T08:33:01.395Z,15.00
2018-09-28T08:35:04.488Z,14.90
2018-09-28T08:37:07.524Z,14.80
2018-09-28T08:39:10.511Z,14.70
2018-09-28T08:41:13.542Z,14.60
2018-09-28T08:43:16.510Z,14.50
2018-09-28T08:45:19.563Z,14.60
2018-09-28T08:47:23.728Z,14.90
2018-09-28T08:49:26.739Z,15.20
2018-09-28T08:51:29.763Z,15.40
2018-09-28T08:53:32.790Z,15.60
2018-09-28T08:55:35.785Z,15.80
2018-09-28T08:57:38.784Z,16.00
2018-09-28T08:59:41.803Z,16.30
2018-09-28T09:01:44.803Z,16.50
2018-09-28T09:03:47.839Z,16.80
2018-09-28T09:05:52.610Z,16.90
2018-09-28T09:07:55.617Z,16.80
2018-09-28T09:09:58.656Z,16.60
2018-09-28T09:12:01.626Z,16.50
2018-09-28T09:14:04.655Z,16.40
2018-09-28T09:16:07.866Z,16.50
2018-09-28T09:18:11.052Z,16.50
2018-09-28T09:20:13.916Z,16.60
2018-09-28T09:22:16.903Z,16.70
2018-09-28T09:24:19.917Z,16.60
2018-09-28T09:26:24.687Z,16.80
2018-09-28T09:28:28.015Z,16.90
2018-09-28T09:30:31.039Z,17.00
2018-09-28T09:32:34.042Z,17.20
2018-09-28T09:34:37.048Z,17.20
2018-09-28T09:36:40.104Z,17.30
2018-09-28T09:38:43.104Z,17.50
2018-09-28T09:40:46.174Z,17.60
2018-09-28T09:42:49.170Z,17.80
2018-09-28T09:44:53.566Z,18.10
2018-09-28T09:46:56.647Z,18.30
2018-09-28T09:48:59.644Z,18.30
2018-09-28T09:51:02.675Z,18.20
2018-09-28T09:53:07.004Z,18.00
2018-09-28T09:55:10.034Z,17.80
2018-09-28T09:57:13.418Z,17.60
2018-09-28T09:59:16.429Z,17.60
2018-09-28T10:01:25.111Z,17.60
2018-09-28T10:03:34.019Z,17.60
2018-09-28T10:05:37.404Z,17.50
2018-09-28T10:07:40.671Z,17.50
2018-09-28T10:09:43.796Z,17.60
2018-09-28T10:11:46.822Z,17.80
2018-09-28T10:13:49.971Z,17.80
2018-09-28T10:15:54.668Z,17.70
2018-09-28T10:17:57.686Z,17.50
2018-09-28T10:20:00.730Z,17.40
2018-09-28T10:22:03.812Z,17.50
2018-09-28T10:24:06.917Z,17.40
2018-09-28T10:26:10.167Z,17.30
2018-09-28T10:28:13.233Z,17.30
2018-09-28T10:30:16.215Z,17.20
2018-09-28T10:32:19.254Z,17.30
2018-09-28T10:34:24.045Z,17.30
2018-09-28T10:36:26.961Z,17.40
2018-09-28T10:38:30.009Z,17.40
2018-09-28T10:40:33.094Z,17.30
2018-09-28T10:42:36.695Z,17.40
2018-09-28T10:44:39.757Z,17.40
2018-09-28T10:46:42.877Z,17.40
2018-09-28T10:48:46.405Z,17.30
2018-09-28T10:50:52.177Z,17.10
2018-09-28T10:52:56.081Z,17.00
2018-09-28T10:54:59.192Z,16.90
2018-09-28T10:57:02.213Z,16.90
2018-09-28T10:59:05.568Z,17.00
2018-09-28T11:01:08.944Z,17.20
2018-09-28T11:03:11.972Z,17.20
2018-09-28T11:05:14.893Z,17.00
2018-09-28T11:07:17.921Z,17.00
2018-09-28T11:09:22.045Z,17.20
2018-09-28T11:11:25.063Z,17.30
2018-09-28T11:13:28.425Z,17.40
2018-09-28T11:15:31.480Z,17.50
2018-09-28T11:17:34.472Z,17.60
2018-09-28T11:19:37.514Z,17.80
2018-09-28T11:21:40.571Z,18.00
2018-09-28T11:23:43.726Z,17.90
2018-09-28T11:25:46.769Z,18.00
2018-09-28T11:27:49.931Z,18.00
2018-09-28T11:29:54.216Z,18.00
2018-09-28T11:31:57.269Z,18.00
2018-09-28T11:34:00.340Z,18.00
2018-09-28T11:36:03.360Z,18.10
2018-09-28T11:38:06.372Z,18.30
2018-09-28T11:40:09.438Z,18.50
2018-09-28T11:42:12.724Z,18.50
2018-09-28T11:44:15.849Z,18.70
2018-09-28T11:46:18.829Z,18.90
2018-09-28T11:48:23.930Z,18.90
2018-09-28T11:50:26.969Z,18.50
2018-09-28T11:52:30.021Z,18.60
2018-09-28T11:54:33.383Z,18.60
2018-09-28T11:56:36.372Z,18.70
2018-09-28T11:58:39.385Z,18.80
2018-09-28T12:00:42.702Z,18.80
2018-09-28T12:02:45.704Z,18.60
2018-09-28T12:04:48.713Z,18.30
2018-09-28T12:06:53.432Z,18.30
2018-09-28T12:08:56.371Z,18.40
2018-09-28T12:10:59.384Z,18.50
2018-09-28T12:13:02.413Z,18.50
2018-09-28T12:15:05.517Z,18.30
2018-09-28T12:17:08.509Z,18.20
2018-09-28T12:19:11.479Z,18.00
2018-09-28T12:21:14.476Z,17.90
2018-09-28T12:23:17.539Z,17.90
2018-09-28T12:25:20.516Z,18.10
2018-09-28T12:27:24.825Z,18.40
2018-09-28T12:29:27.940Z,18.70
2018-09-28T12:31:30.950Z,18.90
2018-09-28T12:33:34.124Z,18.80
2018-09-28T12:35:37.137Z,18.30
2018-09-28T12:37:40.156Z,18.00
2018-09-28T12:39:43.323Z,18.20
2018-09-28T12:41:46.250Z,18.50
2018-09-28T12:43:49.230Z,18.70
2018-09-28T12:45:53.924Z,19.00
2018-09-28T12:47:57.006Z,19.10
2018-09-28T12:50:00.036Z,18.80
2018-09-28T12:52:03.125Z,18.70
2018-09-28T12:54:06.262Z,18.50
2018-09-28T12:56:09.293Z,18.70
2018-09-28T12:58:12.348Z,19.00
2018-09-28T13:00:15.412Z,19.20
2018-09-28T13:02:18.453Z,19.40
2018-09-28T13:04:23.171Z,19.40
2018-09-28T13:06:26.264Z,19.60
2018-09-28T13:08:29.357Z,19.90
2018-09-28T13:10:32.707Z,20.10
2018-09-28T13:12:35.769Z,20.30
2018-09-28T13:14:38.889Z,20.40
2018-09-28T13:16:41.895Z,20.30
2018-09-28T13:18:44.926Z,20.20
2018-09-28T13:20:48.014Z,20.10
2018-09-28T13:22:52.554Z,19.90
2018-09-28T13:24:55.567Z,19.50
2018-09-28T13:26:58.701Z,19.30
2018-09-28T13:29:01.811Z,19.50
2018-09-28T13:31:04.919Z,19.40
2018-09-28T13:33:07.885Z,19.50
2018-09-28T13:35:10.909Z,19.50
2018-09-28T13:37:13.956Z,19.60
2018-09-28T13:39:16.982Z,19.60
2018-09-28T13:41:19.993Z,19.70
2018-09-28T13:43:24.572Z,19.70
2018-09-28T13:45:27.649Z,19.90
2018-09-28T13:47:30.601Z,19.90
2018-09-28T13:49:33.618Z,19.60
2018-09-28T13:51:36.663Z,19.30
2018-09-28T13:53:39.652Z,19.50
2018-09-28T13:55:42.949Z,19.70
2018-09-28T13:57:45.956Z,19.90
2018-09-28T13:59:48.940Z,20.00
2018-09-28T14:01:53.168Z,20.20
2018-09-28T14:03:56.178Z,20.20
2018-09-28T14:05:59.204Z,20.30
2018-09-28T14:08:02.585Z,20.00
2018-09-28T14:10:05.622Z,19.80
2018-09-28T14:12:08.752Z,19.90
2018-09-28T14:14:12.075Z,20.20
2018-09-28T14:16:15.165Z,20.10
2018-09-28T14:18:18.233Z,20.00
2018-09-28T14:20:22.858Z,19.70
2018-09-28T14:22:25.979Z,19.30
2018-09-28T14:24:28.936Z,18.90
2018-09-28T14:26:32.172Z,18.60
2018-09-28T14:28:35.292Z,18.40
2018-09-28T14:30:38.228Z,18.20
2018-09-28T14:32:41.331Z,18.20
2018-09-28T14:34:44.449Z,18.10
2018-09-28T14:36:47.457Z,17.90
2018-09-28T14:38:50.421Z,17.90
2018-09-28T14:40:53.469Z,18.00
2018-09-28T14:42:56.488Z,18.30
2018-09-28T14:44:59.582Z,18.40
2018-09-28T14:47:02.573Z,18.50
2018-09-28T14:49:05.723Z,18.50
2018-09-28T14:51:08.745Z,18.60
2018-09-28T14:53:11.723Z,18.80
2018-09-28T14:55:14.765Z,19.00
2018-09-28T14:57:17.975Z,19.30
2018-09-28T14:59:22.089Z,19.30
2018-09-28T15:01:25.282Z,19.20
2018-09-28T15:03:28.130Z,18.90
2018-09-28T15:05:31.137Z,18.60
2018-09-28T15:07:34.157Z,18.40
2018-09-28T15:09:37.220Z,18.20
2018-09-28T15:11:40.333Z,18.10
2018-09-28T15:13:43.458Z,18.20
2018-09-28T15:15:46.468Z,18.10
2018-09-28T15:17:49.495Z,18.10
2018-09-28T15:19:53.851Z,18.00
2018-09-28T15:21:56.820Z,18.00
2018-09-28T15:23:59.850Z,18.00
2018-09-28T15:26:02.857Z,18.00
2018-09-28T15:28:05.841Z,18.00
2018-09-28T15:30:08.993Z,17.90
2018-09-28T15:32:12.005Z,17.90
2018-09-28T15:34:14.995Z,17.80
2018-09-28T15:36:18.063Z,17.60
2018-09-28T15:38:22.636Z,17.30
2018-09-28T15:40:25.630Z,17.20
2018-09-28T15:42:28.961Z,17.00
2018-09-28T15:44:31.986Z,16.90
2018-09-28T15:46:34.992Z,16.80
2018-09-28T15:48:38.128Z,16.70
2018-09-28T15:50:41.233Z,16.70
2018-09-28T15:52:44.264Z,16.70
2018-09-28T15:54:47.355Z,16.60
2018-09-28T15:56:50.394Z,16.70
2018-09-28T15:58:55.020Z,16.80
2018-09-28T16:00:58.064Z,16.70
2018-09-28T16:03:01.080Z,16.80
2018-09-28T16:05:04.279Z,16.60
2018-09-28T16:07:07.576Z,16.50
2018-09-28T16:09:10.580Z,16.10
2018-09-28T16:11:14.491Z,16.00
2018-09-28T16:13:17.532Z,15.80
2018-09-28T16:15:20.497Z,15.70
2018-09-28T16:17:25.386Z,15.70
2018-09-28T16:19:28.414Z,15.60
2018-09-28T16:21:31.409Z,15.50
2018-09-28T16:23:34.483Z,15.50
2018-09-28T16:25:37.436Z,15.40
2018-09-28T16:27:40.404Z,15.30
2018-09-28T16:29:43.420Z,15.20
2018-09-28T16:31:46.404Z,15.10
2018-09-28T16:33:49.443Z,15.10
2018-09-28T16:35:53.772Z,15.10
2018-09-28T16:37:56.796Z,14.90
2018-09-28T16:39:59.834Z,14.80
2018-09-28T16:42:02.840Z,14.80
2018-09-28T16:44:06.172Z,14.60
2018-09-28T16:46:09.547Z,14.60
2018-09-28T16:48:12.578Z,14.50
2018-09-28T16:50:15.578Z,14.40
2018-09-28T16:52:18.606Z,14.40
2018-09-28T16:54:23.172Z,14.30
2018-09-28T16:56:26.267Z,14.30
2018-09-28T16:58:29.315Z,14.30
2018-09-28T17:00:32.269Z,14.30
2018-09-28T17:02:35.285Z,14.20
2018-09-28T17:04:38.306Z,14.20
2018-09-28T17:06:41.706Z,14.20
2018-09-28T17:08:44.731Z,14.10
2018-09-28T17:10:47.711Z,14.00
2018-09-28T17:12:52.667Z,13.90
2018-09-28T17:14:55.702Z,13.80
2018-09-28T17:16:58.681Z,13.70
2018-09-28T17:19:01.853Z,13.70
2018-09-28T17:21:04.841Z,13.60
2018-09-28T17:23:07.855Z,13.50
2018-09-28T17:25:10.893Z,13.50
2018-09-28T17:27:13.927Z,13.40
2018-09-28T17:29:16.933Z,13.40
2018-09-28T17:31:19.964Z,13.30
2018-09-28T17:33:24.241Z,13.20
2018-09-28T17:35:27.271Z,13.10
2018-09-28T17:37:30.296Z,13.10
2018-09-28T17:39:33.325Z,13.00
2018-09-28T17:41:36.696Z,12.90
2018-09-28T17:43:39.696Z,12.70
2018-09-28T17:45:42.710Z,12.70
2018-09-28T17:47:45.740Z,12.70
2018-09-28T17:49:48.732Z,12.70
2018-09-28T17:51:53.496Z,12.70
2018-09-28T17:53:56.544Z,12.70
2018-09-28T17:55:59.592Z,12.60
2018-09-28T17:58:02.577Z,12.60
2018-09-28T18:00:05.972Z,12.40
2018-09-28T18:02:08.992Z,12.40
2018-09-28T18:04:11.984Z,12.30
2018-09-28T18:06:15.017Z,12.30
2018-09-28T18:08:18.047Z,12.20
2018-09-28T18:10:22.842Z,12.10
2018-09-28T18:12:25.861Z,12.10
2018-09-28T18:14:28.865Z,11.90
2018-09-28T18:16:31.932Z,11.90
2018-09-28T18:18:34.974Z,11.90
2018-09-28T18:20:37.957Z,11.80
2018-09-28T18:22:41.080Z,11.70
2018-09-28T18:24:44.440Z,11.70
2018-09-28T18:26:47.416Z,11.60
2018-09-28T18:28:50.436Z,11.60
2018-09-28T18:30:53.593Z,11.60
2018-09-28T18:32:56.640Z,11.40
2018-09-28T18:34:59.668Z,11.40
2018-09-28T18:37:02.790Z,11.30
2018-09-28T18:39:08.165Z,11.10
2018-09-28T18:41:11.194Z,11.10
2018-09-28T18:43:14.222Z,11.00
2018-09-28T18:45:17.267Z,10.90
2018-09-28T18:47:20.250Z,10.80
2018-09-28T18:49:24.827Z,10.70
2018-09-28T18:51:28.201Z,10.70
2018-09-28T18:53:31.254Z,10.70
2018-09-28T18:55:34.252Z,10.60
2018-09-28T18:57:37.329Z,10.50
2018-09-28T18:59:40.473Z,10.50
2018-09-28T19:01:43.428Z,10.30
2018-09-28T19:03:46.511Z,10.20
2018-09-28T19:05:49.547Z,10.20
2018-09-28T19:07:53.641Z,10.10
2018-09-28T19:09:56.641Z,10.00
2018-09-28T19:11:59.617Z,10.00
2018-09-28T19:14:02.634Z,9.90
2018-09-28T19:16:05.717Z,9.90
2018-09-28T19:18:08.961Z,9.80
2018-09-28T19:20:11.974Z,9.70
2018-09-28T19:22:14.976Z,9.60
2018-09-28T19:24:18.026Z,9.50
2018-09-28T19:26:22.819Z,9.50
2018-09-28T19:28:25.861Z,9.40
2018-09-28T19:30:28.884Z,9.40
2018-09-28T19:32:31.931Z,9.30
2018-09-28T19:34:34.948Z,9.20
2018-09-28T19:36:37.944Z,9.20
2018-09-28T19:38:40.997Z,9.10
2018-09-28T19:40:43.998Z,9.10
2018-09-28T19:42:46.972Z,9.10
2018-09-28T19:44:49.980Z,9.10
2018-09-28T19:46:54.900Z,9.10
2018-09-28T19:48:57.880Z,9.00
2018-09-28T19:51:00.881Z,8.90
2018-09-28T19:53:03.893Z,8.80
2018-09-28T19:55:07.030Z,8.80
2018-09-28T19:57:10.126Z,8.70
2018-09-28T19:59:13.433Z,8.70
2018-09-28T20:01:16.477Z,8.70
2018-09-28T20:03:19.582Z,8.70
2018-09-28T20:05:23.976Z,8.60
2018-09-28T20:07:26.992Z,8.60
2018-09-28T20:09:30.024Z,8.60
2018-09-28T20:11:33.061Z,8.60
2018-09-28T20:13:36.092Z,8.50
2018-09-28T20:15:39.163Z,8.40
2018-09-28T20:17:42.286Z,8.30
2018-09-28T20:19:45.285Z,8.20
2018-09-28T20:21:48.267Z,8.20
2018-09-28T20:23:53.013Z,8.10
2018-09-28T20:25:56.176Z,8.00
2018-09-28T20:27:59.130Z,8.00
2018-09-28T20:30:02.202Z,8.00
2018-09-28T20:32:05.550Z,7.90
2018-09-28T20:34:08.533Z,7.90
2018-09-28T20:36:11.560Z,7.90
2018-09-28T20:38:14.712Z,7.90
2018-09-28T20:40:17.754Z,7.90
2018-09-28T20:42:22.722Z,7.80
2018-09-28T20:44:25.773Z,7.80
2018-09-28T20:46:28.807Z,7.70
2018-09-28T20:48:31.789Z,7.60
2018-09-28T20:50:34.775Z,7.60
2018-09-28T20:52:37.847Z,7.50
2018-09-28T20:54:41.162Z,7.50
2018-09-28T20:56:44.208Z,7.40
2018-09-28T20:58:47.326Z,7.40
2018-09-28T21:00:50.381Z,7.30
2018-09-28T21:02:54.458Z,7.30
2018-09-28T21:04:57.752Z,7.30
2018-09-28T21:07:00.780Z,7.20
2018-09-28T21:09:06.459Z,7.10
2018-09-28T21:11:09.467Z,7.10
2018-09-28T21:13:12.537Z,7.10
2018-09-28T21:15:15.595Z,7.00
2018-09-28T21:17:18.627Z,7.00
2018-09-28T21:19:23.053Z,6.90
2018-09-28T21:21:26.065Z,6.80
2018-09-28T21:23:29.096Z,6.80
2018-09-28T21:25:32.078Z,6.80
2018-09-28T21:27:35.097Z,6.80
2018-09-28T21:29:38.153Z,6.80
2018-09-28T21:31:41.541Z,6.80
2018-09-28T21:33:44.521Z,6.80
2018-09-28T21:35:47.553Z,6.80
2018-09-28T21:37:52.028Z,6.70
2018-09-28T21:39:54.999Z,6.60
2018-09-28T21:41:58.628Z,6.60
2018-09-28T21:44:01.652Z,6.50
2018-09-28T21:46:04.682Z,6.40
2018-09-28T21:48:07.645Z,6.40
2018-09-28T21:50:10.668Z,6.40
2018-09-28T21:52:13.701Z,6.40
2018-09-28T21:54:16.678Z,6.30
2018-09-28T21:56:19.719Z,6.30
2018-09-28T21:58:24.312Z,6.20
2018-09-28T22:00:27.419Z,6.10
2018-09-28T22:02:30.488Z,6.10
2018-09-28T22:04:33.547Z,6.00
2018-09-28T22:06:36.545Z,6.00
2018-09-28T22:08:39.532Z,6.00
2018-09-28T22:10:42.577Z,6.00
2018-09-28T22:12:45.595Z,6.00
2018-09-28T22:14:48.579Z,6.00
2018-09-28T22:16:52.884Z,6.00
2018-09-28T22:18:55.943Z,6.00
2018-09-28T22:20:58.965Z,6.00
2018-09-28T22:23:01.987Z,6.00
2018-09-28T22:25:05.155Z,5.90
2018-09-28T22:27:09.885Z,5.90
2018-09-28T22:29:13.511Z,5.90
2018-09-28T22:31:16.516Z,5.90
2018-09-28T22:33:19.525Z,5.80
2018-09-28T22:35:23.975Z,5.80
2018-09-28T22:37:26.978Z,5.80
2018-09-28T22:39:29.969Z,5.70
2018-09-28T22:41:33.011Z,5.70
2018-09-28T22:43:36.009Z,5.60
2018-09-28T22:45:39.032Z,5.60
2018-09-28T22:47:42.083Z,5.50
2018-09-28T22:49:45.113Z,5.40
2018-09-28T22:51:48.133Z,5.30
2018-09-28T22:53:53.623Z,5.30
2018-09-28T22:55:57.301Z,5.40
2018-09-28T22:58:00.337Z,5.30
2018-09-28T23:00:03.480Z,5.30
2018-09-28T23:02:06.533Z,5.20
2018-09-28T23:04:10.566Z,5.20
2018-09-28T23:06:13.635Z,5.20
2018-09-28T23:08:16.671Z,5.20
2018-09-28T23:10:19.708Z,5.20
2018-09-28T23:12:24.307Z,5.20
2018-09-28T23:14:27.340Z,5.20
2018-09-28T23:16:30.656Z,5.10
2018-09-28T23:18:33.692Z,5.10
2018-09-28T23:20:36.693Z,5.10
2018-09-28T23:22:39.785Z,5.20
2018-09-28T23:24:42.765Z,5.20
2018-09-28T23:26:45.799Z,5.20
2018-09-28T23:28:48.849Z,5.10
2018-09-28T23:30:53.761Z,5.10
2018-09-28T23:32:56.782Z,5.20
2018-09-28T23:34:59.843Z,5.20
2018-09-28T23:37:03.076Z,5.10
2018-09-28T23:39:08.233Z,5.10
2018-09-28T23:41:11.556Z,5.10
2018-09-28T23:43:14.555Z,5.10
2018-09-28T23:45:17.587Z,5.00
2018-09-28T23:47:22.343Z,5.00
2018-09-28T23:49:25.340Z,5.00
2018-09-28T23:51:28.357Z,4.90
2018-09-28T23:53:31.363Z,5.00
2018-09-28T23:55:34.394Z,4.90
2018-09-28T23:57:37.437Z,4.90
2018-09-28T23:59:40.459Z,4.80
